createdAt,value
2022-09-13T00:00:38.606Z,84.15
2022-09-13T00:03:07.488Z,84.26
2022-09-13T00:05:36.149Z,83.57
2022-09-13T00:08:04.209Z,83.79
2022-09-13T00:10:32.995Z,83.51
2022-09-13T00:13:00.468Z,83.86
2022-09-13T00:15:28.129Z,84.31
2022-09-13T00:17:55.973Z,84.02
2022-09-13T00:20:24.912Z,84.94
2022-09-13T00:22:52.382Z,85.85
2022-09-13T00:25:20.208Z,85.82
2022-09-13T00:27:48.084Z,85.53
2022-09-13T00:30:15.608Z,85.76
2022-09-13T00:32:43.021Z,85.03
2022-09-13T00:35:10.852Z,85.17
2022-09-13T00:37:39.762Z,85.36
2022-09-13T00:40:08.536Z,85.16
2022-09-13T00:42:35.972Z,84.88
2022-09-13T00:45:16.157Z,84.68
2022-09-13T00:47:47.732Z,85.18
2022-09-13T00:50:19.125Z,85.03
2022-09-13T00:52:50.646Z,84.70
2022-09-13T00:55:21.215Z,84.75
2022-09-13T00:57:48.825Z,85.04
2022-09-13T01:00:19.493Z,85.31
2022-09-13T01:02:50.942Z,84.72
2022-09-13T01:05:19.477Z,84.48
2022-09-13T01:07:48.413Z,85.26
2022-09-13T01:10:15.879Z,85.53
2022-09-13T01:12:48.372Z,85.29
2022-09-13T01:15:16.209Z,85.09
2022-09-13T01:17:44.478Z,86.01
2022-09-13T01:20:12.971Z,86.11
2022-09-13T01:23:11.539Z,86.61
2022-09-13T01:25:51.288Z,86.67
2022-09-13T01:28:27.671Z,87.01
2022-09-13T01:31:00.204Z,86.71
2022-09-13T01:33:38.479Z,86.55
2022-09-13T01:36:34.357Z,85.58
2022-09-13T01:39:05.191Z,85.42
2022-09-13T01:41:49.300Z,85.25
2022-09-13T01:44:28.372Z,84.78
2022-09-13T01:47:02.052Z,84.71
2022-09-13T01:49:34.067Z,84.87
2022-09-13T01:52:03.081Z,84.41
2022-09-13T01:54:35.485Z,84.54
2022-09-13T01:57:09.077Z,84.63
2022-09-13T01:59:40.243Z,86.18
2022-09-13T02:02:11.752Z,86.74
2022-09-13T02:04:41.953Z,86.58
2022-09-13T02:07:14.842Z,86.91
2022-09-13T02:09:45.099Z,87.78
2022-09-13T02:12:16.956Z,88.68
2022-09-13T02:14:45.637Z,87.99
2022-09-13T02:17:16.815Z,87.56
2022-09-13T02:19:48.871Z,87.16
2022-09-13T02:22:19.318Z,86.60
2022-09-13T02:24:49.604Z,86.79
2022-09-13T02:27:20.569Z,86.57
2022-09-13T02:29:50.849Z,86.29
2022-09-13T02:32:23.439Z,86.21
2022-09-13T02:34:54.906Z,85.84
2022-09-13T02:37:22.820Z,85.79
2022-09-13T02:39:53.211Z,86.33
2022-09-13T02:42:22.986Z,86.00
2022-09-13T02:44:52.709Z,85.75
2022-09-13T02:47:33.695Z,87.09
2022-09-13T02:50:09.145Z,87.10
2022-09-13T02:52:42.526Z,86.52
2022-09-13T02:55:17.633Z,86.23
2022-09-13T02:57:53.415Z,86.38
2022-09-13T03:00:21.038Z,87.02
2022-09-13T03:02:50.464Z,87.06
2022-09-13T03:05:18.451Z,86.55
2022-09-13T03:07:45.888Z,86.17
2022-09-13T03:10:15.919Z,86.93
2022-09-13T03:12:53.232Z,86.10
2022-09-13T03:15:26.523Z,86.34
2022-09-13T03:18:03.942Z,86.24
2022-09-13T03:20:37.932Z,86.49
2022-09-13T03:23:19.569Z,87.54
2022-09-13T03:26:07.700Z,88.23
2022-09-13T03:28:39.883Z,88.44
2022-09-13T03:31:10.258Z,87.85
2022-09-13T03:33:44.901Z,87.30
2022-09-13T03:36:15.612Z,86.84
2022-09-13T03:38:46.733Z,86.43
2022-09-13T03:41:17.194Z,86.41
2022-09-13T03:43:47.399Z,87.30
2022-09-13T03:46:18.656Z,87.96
2022-09-13T03:48:48.302Z,88.66
2022-09-13T03:51:16.029Z,88.33
2022-09-13T03:53:46.380Z,87.25
2022-09-13T03:56:15.075Z,87.09
2022-09-13T03:58:43.850Z,86.81
2022-09-13T04:01:11.554Z,86.01
2022-09-13T04:03:39.350Z,86.14
2022-09-13T04:06:09.576Z,86.85
2022-09-13T04:08:37.073Z,86.76
2022-09-13T04:11:04.875Z,87.83
2022-09-13T04:13:32.337Z,87.98
2022-09-13T04:16:02.273Z,87.76
2022-09-13T04:18:29.728Z,87.47
2022-09-13T04:20:58.693Z,87.12
2022-09-13T04:23:28.412Z,86.56
2022-09-13T04:25:56.307Z,87.14
2022-09-13T04:28:23.766Z,87.78
2022-09-13T04:30:51.188Z,87.98
2022-09-13T04:33:18.635Z,88.32
2022-09-13T04:35:46.055Z,88.54
2022-09-13T04:38:13.614Z,89.19
2022-09-13T04:40:42.787Z,88.89
2022-09-13T04:43:10.195Z,89.47
2022-09-13T04:45:38.086Z,88.99
2022-09-13T04:48:05.618Z,88.37
2022-09-13T04:50:33.019Z,88.21
2022-09-13T04:53:00.419Z,88.85
2022-09-13T04:55:27.829Z,89.03
2022-09-13T04:57:57.115Z,89.07
2022-09-13T05:00:26.199Z,89.47
2022-09-13T05:02:56.373Z,89.59
2022-09-13T05:05:25.681Z,89.12
2022-09-13T05:07:53.665Z,88.70
2022-09-13T05:10:21.449Z,88.99
2022-09-13T05:12:48.935Z,88.16
2022-09-13T05:15:17.910Z,87.89
2022-09-13T05:17:45.376Z,87.56
2022-09-13T05:20:12.781Z,87.69
2022-09-13T05:22:40.219Z,88.87
2022-09-13T05:25:09.122Z,89.06
2022-09-13T05:27:36.552Z,88.57
2022-09-13T05:30:05.008Z,88.22
2022-09-13T05:32:33.783Z,88.52
2022-09-13T05:35:01.230Z,87.88
2022-09-13T05:37:28.669Z,86.97
2022-09-13T05:40:12.482Z,86.92
2022-09-13T05:42:40.302Z,87.01
2022-09-13T05:45:09.327Z,87.67
2022-09-13T05:47:38.154Z,88.40
2022-09-13T05:50:11.858Z,88.47
2022-09-13T05:52:43.517Z,88.99
2022-09-13T05:55:11.530Z,88.83
2022-09-13T05:57:39.397Z,88.35
2022-09-13T06:00:08.047Z,88.02
2022-09-13T06:02:35.547Z,87.39
2022-09-13T06:05:04.789Z,87.68
2022-09-13T06:07:32.302Z,87.55
2022-09-13T06:09:59.830Z,86.68
2022-09-13T06:12:27.254Z,86.08
2022-09-13T06:14:54.747Z,85.25
2022-09-13T06:17:22.211Z,85.30
2022-09-13T06:19:49.649Z,86.23
2022-09-13T06:22:18.490Z,85.41
2022-09-13T06:24:45.933Z,85.11
2022-09-13T06:27:13.383Z,85.24
2022-09-13T06:29:40.823Z,85.85
2022-09-13T06:32:08.287Z,86.18
2022-09-13T06:34:35.737Z,86.32
2022-09-13T06:37:04.012Z,86.11
2022-09-13T06:39:34.169Z,86.30
2022-09-13T06:42:01.649Z,85.98
2022-09-13T06:44:29.178Z,86.05
2022-09-13T06:46:56.607Z,86.00
2022-09-13T06:49:24.040Z,86.12
2022-09-13T06:51:51.495Z,86.32
2022-09-13T06:54:18.983Z,86.39
2022-09-13T06:56:47.762Z,86.42
2022-09-13T06:59:15.225Z,86.15
2022-09-13T07:01:44.705Z,86.03
2022-09-13T07:04:13.294Z,85.45
2022-09-13T07:06:42.422Z,84.95
2022-09-13T07:09:12.390Z,84.75
2022-09-13T07:11:41.931Z,84.08
2022-09-13T07:14:14.443Z,83.97
2022-09-13T07:16:41.877Z,85.03
2022-09-13T07:19:13.727Z,85.66
2022-09-13T07:21:41.356Z,85.16
2022-09-13T07:24:09.043Z,84.73
2022-09-13T07:26:37.020Z,84.81
2022-09-13T07:29:06.267Z,85.01
2022-09-13T07:31:36.819Z,85.01
2022-09-13T07:34:05.783Z,85.15
2022-09-13T07:36:34.463Z,84.85
2022-09-13T07:39:02.619Z,85.39
2022-09-13T07:41:31.349Z,85.72
2022-09-13T07:43:59.222Z,85.58
2022-09-13T07:46:28.076Z,85.88
2022-09-13T07:48:57.780Z,85.90
2022-09-13T07:51:26.687Z,85.49
2022-09-13T07:53:57.728Z,84.87
2022-09-13T07:56:26.926Z,84.92
2022-09-13T07:58:55.838Z,84.84
2022-09-13T08:01:24.981Z,84.22
2022-09-13T08:03:54.222Z,83.41
2022-09-13T08:06:23.206Z,82.93
2022-09-13T08:08:50.635Z,82.00
2022-09-13T08:11:20.043Z,81.85
2022-09-13T08:13:48.334Z,82.55
2022-09-13T08:16:16.566Z,80.90
2022-09-13T08:18:45.224Z,79.98
2022-09-13T08:21:12.816Z,79.76
2022-09-13T08:23:42.054Z,78.54
2022-09-13T08:26:10.674Z,79.14
2022-09-13T08:28:39.645Z,79.36
2022-09-13T08:31:08.223Z,79.72
2022-09-13T08:33:36.084Z,77.91
2022-09-13T08:36:04.637Z,77.82
2022-09-13T08:38:33.061Z,76.82
2022-09-13T08:41:06.023Z,76.28
2022-09-13T08:43:41.935Z,76.29
2022-09-13T08:46:14.056Z,76.50
2022-09-13T08:48:44.726Z,76.83
2022-09-13T08:51:25.517Z,75.88
2022-09-13T08:53:53.004Z,75.37
2022-09-13T08:56:24.435Z,75.03
2022-09-13T08:59:04.023Z,74.45
2022-09-13T09:01:42.153Z,75.17
2022-09-13T09:04:16.569Z,74.20
2022-09-13T09:06:44.294Z,75.39
2022-09-13T09:09:16.179Z,76.06
2022-09-13T09:11:50.367Z,76.25
2022-09-13T09:14:22.239Z,76.98
2022-09-13T09:16:52.863Z,78.13
2022-09-13T09:19:24.159Z,79.47
2022-09-13T09:21:52.287Z,80.61
2022-09-13T09:24:22.776Z,81.51
2022-09-13T09:26:51.960Z,83.00
2022-09-13T09:29:24.856Z,83.58
2022-09-13T09:31:59.908Z,82.57
2022-09-13T09:34:42.491Z,83.02
2022-09-13T09:37:15.887Z,82.82
2022-09-13T09:39:43.739Z,83.35
2022-09-13T09:42:14.409Z,84.14
2022-09-13T09:44:42.278Z,84.58
2022-09-13T09:47:13.395Z,84.27
2022-09-13T09:50:02.617Z,84.30
2022-09-13T09:52:32.682Z,84.48
2022-09-13T09:55:07.424Z,85.18
2022-09-13T09:57:52.005Z,86.49
2022-09-13T10:00:20.953Z,86.09
2022-09-13T10:02:49.700Z,85.51
2022-09-13T10:05:20.562Z,86.15
2022-09-13T10:07:55.180Z,86.64
2022-09-13T10:10:25.731Z,86.10
2022-09-13T10:12:56.905Z,85.86
2022-09-13T10:15:26.759Z,84.88
2022-09-13T10:18:40.086Z,84.71
2022-09-13T10:21:05.743Z,85.15
2022-09-13T10:23:34.231Z,84.72
2022-09-13T10:26:05.819Z,85.13
2022-09-13T10:28:36.959Z,84.51
2022-09-13T10:31:06.420Z,84.27
2022-09-13T10:33:36.766Z,82.61
2022-09-13T10:36:06.579Z,83.22
2022-09-13T10:38:37.636Z,82.88
2022-09-13T10:41:07.540Z,83.29
2022-09-13T10:43:37.118Z,82.77
2022-09-13T10:46:06.104Z,82.59
2022-09-13T10:48:48.396Z,82.39
2022-09-13T10:51:38.421Z,81.49
2022-09-13T10:54:17.311Z,82.03
2022-09-13T10:56:45.169Z,82.38
2022-09-13T10:59:22.054Z,82.69
2022-09-13T11:01:57.932Z,82.43
2022-09-13T11:04:54.652Z,82.29
2022-09-13T11:07:38.589Z,82.38
2022-09-13T11:10:11.551Z,81.95
2022-09-13T11:12:42.270Z,80.84
2022-09-13T11:15:20.883Z,80.26
2022-09-13T11:18:04.414Z,78.70
2022-09-13T11:20:39.168Z,79.75
2022-09-13T11:23:23.884Z,77.51
2022-09-13T11:26:13.782Z,77.60
2022-09-13T11:29:02.775Z,77.35
2022-09-13T11:31:39.694Z,76.04
2022-09-13T11:34:17.209Z,78.79
2022-09-13T11:36:58.102Z,78.61
2022-09-13T11:39:32.262Z,79.35
2022-09-13T11:42:08.548Z,78.92
2022-09-13T11:44:50.417Z,78.23
2022-09-13T11:47:29.101Z,78.71
2022-09-13T11:50:04.906Z,77.39
2022-09-13T11:52:42.221Z,77.87
2022-09-13T11:55:16.358Z,78.68
2022-09-13T11:57:46.501Z,79.18
2022-09-13T12:00:21.049Z,79.85
2022-09-13T12:02:53.942Z,78.40
2022-09-13T12:05:23.833Z,78.77
2022-09-13T12:07:55.085Z,78.62
2022-09-13T12:10:26.672Z,77.77
2022-09-13T12:12:55.734Z,78.22
2022-09-13T12:15:28.696Z,77.13
2022-09-13T12:18:01.662Z,76.72
2022-09-13T12:20:33.498Z,76.60
2022-09-13T12:23:03.148Z,75.35
2022-09-13T12:25:38.596Z,76.00
2022-09-13T12:28:11.352Z,75.56
2022-09-13T12:30:43.702Z,75.61
2022-09-13T12:33:14.997Z,76.03
2022-09-13T12:35:49.554Z,75.72
2022-09-13T12:38:38.964Z,75.80
2022-09-13T12:41:25.606Z,75.48
2022-09-13T12:44:13.953Z,74.75
2022-09-13T12:46:56.266Z,75.53
2022-09-13T12:49:52.575Z,75.76
2022-09-13T12:52:29.560Z,75.85
2022-09-13T12:55:45.475Z,75.20
2022-09-13T12:58:28.729Z,75.81
2022-09-13T13:01:08.242Z,75.05
2022-09-13T13:03:37.172Z,75.76
2022-09-13T13:06:21.548Z,75.62
2022-09-13T13:08:51.877Z,75.61
2022-09-13T13:11:21.843Z,74.55
2022-09-13T13:13:56.772Z,74.98
2022-09-13T13:16:28.411Z,73.09
2022-09-13T13:18:57.166Z,73.60
2022-09-13T13:21:41.274Z,72.75
2022-09-13T13:24:54.407Z,71.48
2022-09-13T13:27:43.780Z,70.12
2022-09-13T13:30:56.252Z,71.67
2022-09-13T13:33:27.609Z,71.71
2022-09-13T13:35:55.358Z,70.50
2022-09-13T13:38:42.874Z,69.90
2022-09-13T13:41:38.185Z,71.16
2022-09-13T13:44:39.018Z,70.09
2022-09-13T13:47:42.480Z,71.51
2022-09-13T13:50:15.993Z,69.96
2022-09-13T13:52:54.868Z,70.87
2022-09-13T13:55:41.933Z,69.51
2022-09-13T13:58:32.823Z,70.80
2022-09-13T14:01:01.795Z,69.19
2022-09-13T14:03:37.353Z,69.78
2022-09-13T14:06:12.425Z,69.14
2022-09-13T14:08:47.424Z,69.78
2022-09-13T14:11:26.064Z,69.98
2022-09-13T14:14:01.820Z,69.91
2022-09-13T14:16:40.090Z,70.06
2022-09-13T14:19:21.264Z,69.45
2022-09-13T14:22:06.114Z,70.21
2022-09-13T14:24:37.775Z,70.80
2022-09-13T14:27:09.565Z,71.41
2022-09-13T14:29:37.231Z,71.80
2022-09-13T14:32:06.986Z,72.18
2022-09-13T14:34:38.024Z,71.62
2022-09-13T14:37:07.853Z,71.62
2022-09-13T14:39:35.347Z,72.69
2022-09-13T14:42:04.430Z,72.00
2022-09-13T14:44:33.229Z,71.27
2022-09-13T14:47:05.793Z,72.41
2022-09-13T14:49:36.415Z,72.21
2022-09-13T14:52:05.605Z,71.80
2022-09-13T14:54:37.629Z,72.45
2022-09-13T14:57:07.287Z,73.79
2022-09-13T14:59:42.967Z,73.76
2022-09-13T15:02:19.652Z,72.91
2022-09-13T15:04:53.494Z,74.42
2022-09-13T15:07:24.024Z,74.16
2022-09-13T15:09:51.784Z,74.00
2022-09-13T15:12:25.966Z,73.92
2022-09-13T15:15:23.516Z,73.47
2022-09-13T15:17:57.025Z,73.90
2022-09-13T15:20:25.748Z,74.11
2022-09-13T15:22:54.119Z,73.90
2022-09-13T15:25:24.565Z,74.02
2022-09-13T15:27:52.327Z,73.61
2022-09-13T15:30:28.366Z,73.33
2022-09-13T15:33:14.872Z,72.97
2022-09-13T15:35:44.145Z,72.59
2022-09-13T15:38:19.080Z,73.25
2022-09-13T15:40:48.397Z,73.07
2022-09-13T15:43:15.951Z,72.97
2022-09-13T15:45:43.744Z,73.25
2022-09-13T15:48:19.099Z,73.40
2022-09-13T15:51:05.649Z,73.34
2022-09-13T15:53:33.374Z,73.56
2022-09-13T15:56:02.409Z,73.63
2022-09-13T15:58:30.641Z,74.00
2022-09-13T16:00:58.547Z,73.98
2022-09-13T16:03:27.595Z,73.67
2022-09-13T16:06:03.323Z,73.58
2022-09-13T16:08:31.048Z,73.82
2022-09-13T16:10:58.818Z,74.15
2022-09-13T16:13:26.394Z,74.37
2022-09-13T16:15:57.730Z,74.36
2022-09-13T16:18:27.151Z,74.22
2022-09-13T16:20:55.043Z,74.45
2022-09-13T16:23:22.601Z,74.13
2022-09-13T16:25:51.617Z,73.93
2022-09-13T16:28:21.182Z,74.16
2022-09-13T16:30:48.969Z,73.92
2022-09-13T16:33:16.733Z,74.13
2022-09-13T16:35:45.854Z,74.24
2022-09-13T16:38:13.871Z,75.03
2022-09-13T16:40:45.124Z,75.47
2022-09-13T16:43:13.581Z,75.26
2022-09-13T16:45:42.906Z,75.31
2022-09-13T16:48:10.605Z,75.43
2022-09-13T16:50:41.018Z,75.61
2022-09-13T16:53:10.377Z,75.64
2022-09-13T16:55:38.059Z,76.17
2022-09-13T16:58:05.716Z,75.94
2022-09-13T17:00:33.475Z,76.02
2022-09-13T17:03:01.387Z,76.20
2022-09-13T17:05:29.028Z,76.21
2022-09-13T17:07:56.612Z,76.43
2022-09-13T17:10:25.587Z,76.43
2022-09-13T17:12:53.628Z,76.33
2022-09-13T17:15:21.262Z,76.89
2022-09-13T17:17:48.713Z,76.96
2022-09-13T17:20:16.172Z,76.31
2022-09-13T17:22:43.622Z,76.30
2022-09-13T17:25:11.431Z,76.73
2022-09-13T17:27:40.233Z,77.14
2022-09-13T17:30:09.403Z,76.63
2022-09-13T17:32:37.153Z,76.68
2022-09-13T17:35:05.646Z,76.96
2022-09-13T17:37:33.465Z,78.17
2022-09-13T17:40:01.189Z,79.81
2022-09-13T17:42:28.790Z,79.90
2022-09-13T17:44:57.866Z,79.79
2022-09-13T17:47:25.535Z,80.55
2022-09-13T17:49:53.654Z,80.16
2022-09-13T17:52:21.302Z,80.64
2022-09-13T17:54:50.258Z,80.45
2022-09-13T17:57:17.790Z,80.50
2022-09-13T17:59:47.355Z,80.87
2022-09-13T18:02:16.654Z,81.91
2022-09-13T18:04:44.445Z,82.28
2022-09-13T18:07:12.859Z,83.15
2022-09-13T18:09:41.387Z,82.85
2022-09-13T18:12:09.501Z,84.21
2022-09-13T18:14:37.170Z,84.47
2022-09-13T18:17:12.790Z,83.75
2022-09-13T18:19:46.692Z,83.09
2022-09-13T18:22:14.795Z,83.64
2022-09-13T18:24:45.941Z,83.86
2022-09-13T18:27:13.519Z,83.65
2022-09-13T18:29:46.176Z,83.15
2022-09-13T18:32:14.704Z,83.89
2022-09-13T18:34:45.699Z,84.14
2022-09-13T18:40:06.994Z,84.82
2022-09-13T18:42:34.646Z,84.82
2022-09-13T18:45:02.334Z,85.26
2022-09-13T18:47:29.931Z,85.13
2022-09-13T18:49:59.274Z,85.12
2022-09-13T18:52:27.010Z,84.23
2022-09-13T18:54:54.665Z,85.57
2022-09-13T18:57:22.369Z,87.09
2022-09-13T18:59:50.027Z,87.05
2022-09-13T19:02:17.953Z,86.93
2022-09-13T19:04:45.787Z,86.78
2022-09-13T19:07:15.167Z,86.25
2022-09-13T19:09:43.230Z,85.64
2022-09-13T19:12:11.107Z,85.51
2022-09-13T19:14:38.810Z,85.87
2022-09-13T19:17:06.768Z,85.61
2022-09-13T19:19:35.566Z,84.67
2022-09-13T19:22:03.553Z,85.52
2022-09-13T19:24:35.060Z,86.73
2022-09-13T19:27:02.610Z,86.25
2022-09-13T19:29:30.628Z,84.44
2022-09-13T19:31:58.684Z,82.93
2022-09-13T19:34:26.959Z,84.15
2022-09-13T19:36:58.219Z,84.77
2022-09-13T19:39:29.541Z,84.91
2022-09-13T19:42:00.783Z,86.34
2022-09-13T19:44:31.522Z,88.67
2022-09-13T19:49:50.006Z,89.95
2022-09-13T19:52:18.231Z,89.61
2022-09-13T19:54:46.193Z,89.77
2022-09-13T19:57:15.474Z,89.30
2022-09-13T19:59:43.409Z,88.17
2022-09-13T20:02:11.740Z,88.25
2022-09-13T20:04:39.625Z,86.43
2022-09-13T20:07:11.978Z,85.68
2022-09-13T20:09:44.332Z,87.25
2022-09-13T20:12:12.805Z,88.10
2022-09-13T20:14:41.996Z,88.15
2022-09-13T20:17:12.268Z,88.42
2022-09-13T20:19:43.612Z,88.32
2022-09-13T20:22:14.509Z,88.19
2022-09-13T20:24:42.986Z,89.02
2022-09-13T20:27:10.977Z,89.06
2022-09-13T20:29:38.812Z,89.73
2022-09-13T20:32:09.101Z,89.75
2022-09-13T20:34:37.913Z,90.01
2022-09-13T20:37:09.736Z,90.19
2022-09-13T20:39:37.341Z,89.51
2022-09-13T20:42:06.756Z,88.37
2022-09-13T20:44:34.407Z,87.63
2022-09-13T20:47:02.157Z,88.54
2022-09-13T20:49:31.301Z,89.06
2022-09-13T20:51:59.287Z,88.62
2022-09-13T20:54:26.877Z,88.53
2022-09-13T20:56:54.436Z,88.80
2022-09-13T20:59:22.645Z,88.82
2022-09-13T21:01:50.229Z,88.70
2022-09-13T21:04:18.268Z,88.08
2022-09-13T21:07:01.125Z,88.40
2022-09-13T21:09:28.812Z,88.57
2022-09-13T21:11:56.363Z,88.79
2022-09-13T21:14:23.890Z,88.78
2022-09-13T21:16:51.531Z,88.66
2022-09-13T21:19:19.498Z,88.48
2022-09-13T21:21:48.608Z,88.33
2022-09-13T21:24:16.115Z,88.17
2022-09-13T21:26:43.669Z,88.40
2022-09-13T21:29:12.320Z,88.45
2022-09-13T21:31:40.738Z,87.71
2022-09-13T21:34:12.920Z,86.95
2022-09-13T21:36:40.512Z,87.58
2022-09-13T21:39:09.726Z,87.39
2022-09-13T21:41:37.635Z,87.33
2022-09-13T21:44:05.692Z,87.75
2022-09-13T21:46:35.158Z,87.55
2022-09-13T21:49:04.762Z,87.60
2022-09-13T21:51:34.251Z,87.85
2022-09-13T21:54:05.483Z,88.66
2022-09-13T21:56:37.084Z,90.11
2022-09-13T21:59:08.642Z,90.94
2022-09-13T22:01:39.152Z,92.05
2022-09-13T22:04:08.702Z,91.63
2022-09-13T22:06:38.274Z,89.55
2022-09-13T22:09:08.722Z,89.21
2022-09-13T22:11:40.169Z,88.81
2022-09-13T22:14:09.694Z,88.84
2022-09-13T22:16:40.321Z,88.71
2022-09-13T22:19:10.642Z,88.33
2022-09-13T22:21:41.834Z,87.41
2022-09-13T22:24:12.683Z,86.88
2022-09-13T22:26:41.681Z,86.50
2022-09-13T22:29:09.782Z,86.21
2022-09-13T22:31:39.584Z,86.52
2022-09-13T22:34:08.874Z,86.62
2022-09-13T22:36:36.296Z,86.82
2022-09-13T22:39:04.825Z,86.17
2022-09-13T22:41:33.838Z,86.57
2022-09-13T22:44:03.499Z,86.77
2022-09-13T22:46:32.548Z,86.57
2022-09-13T22:49:00.543Z,86.09
2022-09-13T22:51:28.597Z,86.69
2022-09-13T22:53:56.688Z,87.33
2022-09-13T22:56:26.481Z,87.15
2022-09-13T22:58:55.049Z,86.57
2022-09-13T23:01:24.987Z,86.92
2022-09-13T23:03:52.807Z,88.06
2022-09-13T23:06:23.075Z,88.78
2022-09-13T23:08:51.665Z,88.57
2022-09-13T23:11:21.144Z,88.38
2022-09-13T23:13:49.927Z,88.39
2022-09-13T23:16:18.811Z,88.40
2022-09-13T23:18:48.220Z,88.73
2022-09-13T23:21:18.114Z,88.81
2022-09-13T23:23:45.611Z,89.09
2022-09-13T23:26:17.290Z,89.23
2022-09-13T23:28:45.971Z,88.92
2022-09-13T23:31:14.903Z,89.20
2022-09-13T23:33:43.516Z,88.82
2022-09-13T23:36:13.236Z,88.93
2022-09-13T23:38:41.465Z,88.38
2022-09-13T23:41:10.605Z,89.08
2022-09-13T23:43:38.029Z,89.11
2022-09-13T23:46:05.521Z,89.63
2022-09-13T23:48:34.686Z,88.94
2022-09-13T23:51:03.331Z,90.04
2022-09-13T23:53:32.191Z,90.24
2022-09-13T23:56:00.002Z,91.34
2022-09-13T23:58:28.776Z,91.85
